TUI23X EDDS-EDDH
Flight info
| Callsign | TUI23X |
|---|---|
| Flight time | 0h 56m |
| Altitude | 35000 |
| Route | OKIBA4H/07 OKIBA N851 RIMKI Z99 LOHRE DCT MASEK DCT ELNAT P605 NOLGO NOLGO3P |
| Aircraft | B738/M-SDE2E3FGHIRWXY/LB1 |
Departure
| Time | 2026-04-26 19:27 |
|---|---|
| Airport | Stuttgart Airport (EDDS) |
Arrival
| Time | 2026-04-26 20:23 |
|---|---|
| Airport | Hamburg Helmut Schmidt Airport (EDDH) |
| Time | Latitude | Longitude | Altitude | Speed | Heading |
|---|---|---|---|---|---|
| 2026-04-26 18:56 | 48.69154 | 9.20431 | 1284 ft | 0 kts | 343° |
| 2026-04-26 19:16 | 48.69144 | 9.20436 | 1289 ft | 4 kts | 341° |
| 2026-04-26 19:16 | 48.69119 | 9.20452 | 1290 ft | 4 kts | 326° |
| 2026-04-26 19:16 | 48.69102 | 9.20478 | 1290 ft | 4 kts | 279° |
| 2026-04-26 19:17 | 48.69104 | 9.20495 | 1288 ft | 1 kts | 225° |
| 2026-04-26 19:21 | 48.69103 | 9.20494 | 1288 ft | 1 kts | 225° |
| 2026-04-26 19:21 | 48.69094 | 9.20481 | 1289 ft | 4 kts | 224° |
| 2026-04-26 19:21 | 48.69068 | 9.20436 | 1285 ft | 8 kts | 235° |
| 2026-04-26 19:22 | 48.69044 | 9.20341 | 1286 ft | 11 kts | 253° |
| 2026-04-26 19:22 | 48.69022 | 9.20223 | 1286 ft | 12 kts | 256° |
| 2026-04-26 19:22 | 48.69000 | 9.20108 | 1288 ft | 11 kts | 253° |
| 2026-04-26 19:22 | 48.68973 | 9.20013 | 1286 ft | 8 kts | 239° |
| 2026-04-26 19:23 | 48.68942 | 9.19939 | 1284 ft | 8 kts | 238° |
| 2026-04-26 19:23 | 48.68905 | 9.19878 | 1288 ft | 8 kts | 199° |
| 2026-04-26 19:23 | 48.68852 | 9.19892 | 1284 ft | 8 kts | 164° |
| 2026-04-26 19:23 | 48.68805 | 9.19927 | 1288 ft | 7 kts | 149° |
| 2026-04-26 19:24 | 48.68757 | 9.19957 | 1286 ft | 7 kts | 163° |
| 2026-04-26 19:24 | 48.68710 | 9.19977 | 1286 ft | 7 kts | 163° |
| 2026-04-26 19:24 | 48.68624 | 9.20036 | 1284 ft | 7 kts | 133° |
| 2026-04-26 19:25 | 48.68603 | 9.20097 | 1284 ft | 7 kts | 106° |
| 2026-04-26 19:25 | 48.68600 | 9.20120 | 1286 ft | 7 kts | 96° |
| 2026-04-26 19:25 | 48.68607 | 9.20187 | 1286 ft | 0 kts | 75° |
| 2026-04-26 19:26 | 48.68669 | 9.20515 | 1284 ft | 69 kts | 73° |
| 2026-04-26 19:26 | 48.68956 | 9.22025 | 1285 ft | 152 kts | 74° |
| 2026-04-26 19:26 | 48.69180 | 9.23168 | 1367 ft | 179 kts | 73° |
| 2026-04-26 19:27 | 48.69473 | 9.25037 | 2152 ft | 182 kts | 77° |
| 2026-04-26 19:27 | 48.69743 | 9.26884 | 3012 ft | 187 kts | 74° |
| 2026-04-26 19:27 | 48.70116 | 9.28920 | 3341 ft | 213 kts | 73° |
| 2026-04-26 19:27 | 48.70554 | 9.31155 | 3720 ft | 229 kts | 72° |
| 2026-04-26 19:28 | 48.71045 | 9.33532 | 4228 ft | 241 kts | 72° |
| 2026-04-26 19:28 | 48.71549 | 9.36063 | 4600 ft | 267 kts | 73° |
| 2026-04-26 19:28 | 48.71873 | 9.37734 | 4850 ft | 280 kts | 73° |
| 2026-04-26 19:28 | 48.72386 | 9.40441 | 5737 ft | 277 kts | 73° |
| 2026-04-26 19:29 | 48.72919 | 9.43227 | 6774 ft | 276 kts | 73° |
| 2026-04-26 19:29 | 48.73462 | 9.46051 | 7534 ft | 282 kts | 73° |
| 2026-04-26 19:29 | 48.74060 | 9.48897 | 8322 ft | 286 kts | 63° |
| 2026-04-26 19:29 | 48.75266 | 9.51247 | 9106 ft | 284 kts | 35° |
| 2026-04-26 19:30 | 48.77032 | 9.52535 | 9927 ft | 282 kts | 11° |
| 2026-04-26 19:30 | 48.78971 | 9.52960 | 10627 ft | 288 kts | 4° |
| 2026-04-26 19:30 | 48.80767 | 9.53200 | 10823 ft | 309 kts | 3° |
| 2026-04-26 19:30 | 48.82227 | 9.53364 | 10954 ft | 324 kts | 2° |
| 2026-04-26 19:31 | 48.85382 | 9.53700 | 11209 ft | 354 kts | 3° |
| 2026-04-26 19:31 | 48.87882 | 9.53971 | 11662 ft | 365 kts | 3° |
| 2026-04-26 19:31 | 48.90436 | 9.54259 | 12373 ft | 369 kts | 3° |
| 2026-04-26 19:31 | 48.93003 | 9.54558 | 13115 ft | 372 kts | 3° |
| 2026-04-26 19:32 | 48.95594 | 9.54864 | 13840 ft | 375 kts | 3° |
| 2026-04-26 19:32 | 48.98212 | 9.55174 | 14471 ft | 380 kts | 3° |
| 2026-04-26 19:32 | 49.00856 | 9.55492 | 15113 ft | 382 kts | 3° |
| 2026-04-26 19:32 | 49.03518 | 9.55815 | 15783 ft | 385 kts | 3° |
| 2026-04-26 19:33 | 49.06196 | 9.56140 | 16415 ft | 388 kts | 3° |
| 2026-04-26 19:33 | 49.08899 | 9.56469 | 17034 ft | 391 kts | 3° |
| 2026-04-26 19:33 | 49.11626 | 9.56801 | 17657 ft | 394 kts | 3° |
| 2026-04-26 19:33 | 49.14366 | 9.57135 | 18278 ft | 397 kts | 3° |
| 2026-04-26 19:34 | 49.17133 | 9.57472 | 18834 ft | 400 kts | 3° |
| 2026-04-26 19:34 | 49.19915 | 9.57812 | 19379 ft | 402 kts | 3° |
| 2026-04-26 19:34 | 49.21994 | 9.58066 | 19775 ft | 404 kts | 3° |
| 2026-04-26 19:34 | 49.24492 | 9.58374 | 20243 ft | 406 kts | 3° |
| 2026-04-26 19:35 | 49.27281 | 9.58716 | 20753 ft | 409 kts | 3° |
| 2026-04-26 19:35 | 49.30130 | 9.59065 | 21249 ft | 412 kts | 3° |
| 2026-04-26 19:35 | 49.32995 | 9.59416 | 21733 ft | 414 kts | 3° |
| 2026-04-26 19:35 | 49.35880 | 9.59770 | 22223 ft | 417 kts | 3° |
| 2026-04-26 19:36 | 49.38780 | 9.60126 | 22692 ft | 419 kts | 3° |
| 2026-04-26 19:36 | 49.40749 | 9.60369 | 22998 ft | 421 kts | 3° |
| 2026-04-26 19:36 | 49.44675 | 9.60853 | 23619 ft | 425 kts | 3° |
| 2026-04-26 19:36 | 49.47626 | 9.61217 | 24023 ft | 427 kts | 3° |
| 2026-04-26 19:37 | 49.50600 | 9.61585 | 24400 ft | 429 kts | 3° |
| 2026-04-26 19:37 | 49.53545 | 9.61950 | 24793 ft | 431 kts | 2° |
| 2026-04-26 19:37 | 49.56536 | 9.62321 | 25176 ft | 432 kts | 2° |
| 2026-04-26 19:37 | 49.59541 | 9.62695 | 25540 ft | 434 kts | 2° |
| 2026-04-26 19:38 | 49.62562 | 9.63070 | 25889 ft | 436 kts | 2° |
| 2026-04-26 19:38 | 49.65596 | 9.63447 | 26231 ft | 438 kts | 3° |
| 2026-04-26 19:38 | 49.68642 | 9.63826 | 26581 ft | 439 kts | 2° |
| 2026-04-26 19:38 | 49.71699 | 9.64207 | 26912 ft | 441 kts | 2° |
| 2026-04-26 19:39 | 49.74766 | 9.64591 | 27240 ft | 443 kts | 2° |
| 2026-04-26 19:39 | 49.77849 | 9.64976 | 27552 ft | 445 kts | 2° |
| 2026-04-26 19:39 | 49.80943 | 9.65364 | 27854 ft | 447 kts | 2° |
| 2026-04-26 19:39 | 49.84046 | 9.65753 | 28155 ft | 448 kts | 2° |
| 2026-04-26 19:40 | 49.87156 | 9.66144 | 28531 ft | 448 kts | 2° |
| 2026-04-26 19:40 | 49.90254 | 9.66534 | 29009 ft | 446 kts | 2° |
| 2026-04-26 19:40 | 49.92753 | 9.66849 | 29427 ft | 443 kts | 2° |
| 2026-04-26 19:40 | 49.95815 | 9.67240 | 29919 ft | 441 kts | 2° |
| 2026-04-26 19:41 | 49.98868 | 9.67625 | 30316 ft | 440 kts | 2° |
| 2026-04-26 19:41 | 50.01926 | 9.68010 | 30640 ft | 440 kts | 2° |
| 2026-04-26 19:41 | 50.04975 | 9.68394 | 30956 ft | 440 kts | 2° |
| 2026-04-26 19:41 | 50.07031 | 9.68653 | 31184 ft | 439 kts | 2° |
| 2026-04-26 19:42 | 50.11064 | 9.69163 | 31614 ft | 438 kts | 2° |
| 2026-04-26 19:42 | 50.14105 | 9.69549 | 31935 ft | 438 kts | 2° |
| 2026-04-26 19:42 | 50.17140 | 9.69934 | 32264 ft | 437 kts | 2° |
| 2026-04-26 19:42 | 50.20161 | 9.70318 | 32604 ft | 436 kts | 2° |
| 2026-04-26 19:43 | 50.23193 | 9.70705 | 32898 ft | 436 kts | 2° |
| 2026-04-26 19:43 | 50.26178 | 9.71085 | 33187 ft | 435 kts | 2° |
| 2026-04-26 19:43 | 50.29192 | 9.71470 | 33534 ft | 434 kts | 2° |
| 2026-04-26 19:43 | 50.32194 | 9.71854 | 33878 ft | 432 kts | 2° |
| 2026-04-26 19:44 | 50.35195 | 9.72238 | 34174 ft | 432 kts | 2° |
| 2026-04-26 19:44 | 50.38188 | 9.72621 | 34429 ft | 432 kts | 2° |
| 2026-04-26 19:44 | 50.41181 | 9.73005 | 34676 ft | 431 kts | 2° |
| 2026-04-26 19:44 | 50.44169 | 9.73389 | 34947 ft | 430 kts | 2° |
| 2026-04-26 19:45 | 50.47156 | 9.73773 | 35184 ft | 430 kts | 1° |
| 2026-04-26 19:45 | 50.50148 | 9.74158 | 35265 ft | 433 kts | 2° |
| 2026-04-26 19:45 | 50.56171 | 9.74960 | 35279 ft | 434 kts | 2° |
| 2026-04-26 19:46 | 50.62108 | 9.75750 | 35272 ft | 428 kts | 1° |
| 2026-04-26 19:46 | 50.67852 | 9.76502 | 35284 ft | 426 kts | 1° |
| 2026-04-26 19:47 | 50.72788 | 9.77142 | 35274 ft | 424 kts | 1° |
| 2026-04-26 19:47 | 50.79626 | 9.78029 | 35285 ft | 423 kts | 1° |
| 2026-04-26 19:48 | 50.85495 | 9.78791 | 35287 ft | 423 kts | 1° |
| 2026-04-26 19:48 | 50.91374 | 9.79557 | 35283 ft | 424 kts | 1° |
| 2026-04-26 19:49 | 50.97266 | 9.80327 | 35294 ft | 425 kts | 1° |
| 2026-04-26 19:49 | 51.03170 | 9.81102 | 35287 ft | 426 kts | 1° |
| 2026-04-26 19:50 | 51.09043 | 9.81875 | 35285 ft | 427 kts | 1° |
| 2026-04-26 19:50 | 51.14999 | 9.82660 | 35284 ft | 427 kts | 1° |
| 2026-04-26 19:51 | 51.20893 | 9.83440 | 35289 ft | 427 kts | 1° |
| 2026-04-26 19:51 | 51.26824 | 9.84226 | 35299 ft | 427 kts | 1° |
| 2026-04-26 19:52 | 51.32751 | 9.85013 | 35293 ft | 427 kts | 1° |
| 2026-04-26 19:52 | 51.37662 | 9.85668 | 35291 ft | 426 kts | 1° |
| 2026-04-26 19:53 | 51.43575 | 9.86457 | 35292 ft | 427 kts | 1° |
| 2026-04-26 19:53 | 51.49515 | 9.87251 | 35295 ft | 428 kts | 1° |
| 2026-04-26 19:54 | 51.55457 | 9.88048 | 35294 ft | 429 kts | 1° |
| 2026-04-26 19:54 | 51.61404 | 9.88848 | 35297 ft | 429 kts | 1° |
| 2026-04-26 19:55 | 51.67352 | 9.89651 | 35295 ft | 429 kts | 1° |
| 2026-04-26 19:55 | 51.73304 | 9.90456 | 35298 ft | 429 kts | 1° |
| 2026-04-26 19:56 | 51.79204 | 9.91256 | 35295 ft | 428 kts | 1° |
| 2026-04-26 19:56 | 51.85136 | 9.92063 | 35298 ft | 427 kts | 1° |
| 2026-04-26 19:57 | 51.91056 | 9.92870 | 35294 ft | 427 kts | 1° |
| 2026-04-26 19:57 | 51.96965 | 9.93678 | 35300 ft | 426 kts | 1° |
| 2026-04-26 19:58 | 52.02872 | 9.94487 | 35303 ft | 425 kts | 1° |
| 2026-04-26 19:58 | 52.08501 | 9.95260 | 35087 ft | 424 kts | 1° |
| 2026-04-26 19:59 | 52.11427 | 9.95665 | 34562 ft | 420 kts | 1° |
| 2026-04-26 19:59 | 52.14246 | 9.96054 | 33849 ft | 422 kts | 1° |
| 2026-04-26 19:59 | 52.17168 | 9.96457 | 33179 ft | 421 kts | 1° |
| 2026-04-26 19:59 | 52.20080 | 9.96861 | 32663 ft | 417 kts | 1° |
| 2026-04-26 20:00 | 52.22959 | 9.97261 | 32206 ft | 412 kts | 1° |
| 2026-04-26 20:00 | 52.25799 | 9.97657 | 31726 ft | 408 kts | 0° |
| 2026-04-26 20:00 | 52.28605 | 9.98045 | 30905 ft | 412 kts | 0° |
| 2026-04-26 20:00 | 52.31476 | 9.98441 | 30116 ft | 415 kts | 0° |
| 2026-04-26 20:01 | 52.34387 | 9.98845 | 29490 ft | 412 kts | 0° |
| 2026-04-26 20:01 | 52.37225 | 9.99242 | 28994 ft | 406 kts | 0° |
| 2026-04-26 20:01 | 52.39984 | 9.99630 | 28470 ft | 402 kts | 0° |
| 2026-04-26 20:01 | 52.42763 | 10.00020 | 27899 ft | 398 kts | 0° |
| 2026-04-26 20:02 | 52.45514 | 10.00405 | 27347 ft | 395 kts | 0° |
| 2026-04-26 20:02 | 52.48243 | 10.00787 | 26816 ft | 392 kts | 0° |
| 2026-04-26 20:02 | 52.50949 | 10.01166 | 26305 ft | 388 kts | 0° |
| 2026-04-26 20:02 | 52.52718 | 10.01415 | 26146 ft | 382 kts | 0° |
| 2026-04-26 20:03 | 52.56209 | 10.01909 | 25832 ft | 371 kts | 360° |
| 2026-04-26 20:03 | 52.58802 | 10.02270 | 25620 ft | 378 kts | 360° |
| 2026-04-26 20:03 | 52.61439 | 10.02634 | 25410 ft | 383 kts | 0° |
| 2026-04-26 20:03 | 52.64082 | 10.03004 | 25329 ft | 380 kts | 0° |
| 2026-04-26 20:04 | 52.66721 | 10.03376 | 25300 ft | 381 kts | 0° |
| 2026-04-26 20:04 | 52.69350 | 10.03748 | 25299 ft | 379 kts | 360° |
| 2026-04-26 20:04 | 52.71975 | 10.04121 | 25294 ft | 378 kts | 0° |
| 2026-04-26 20:04 | 52.74555 | 10.04486 | 25291 ft | 378 kts | 360° |
| 2026-04-26 20:05 | 52.77176 | 10.04858 | 25290 ft | 377 kts | 360° |
| 2026-04-26 20:05 | 52.79791 | 10.05229 | 25289 ft | 377 kts | 360° |
| 2026-04-26 20:05 | 52.82404 | 10.05600 | 25290 ft | 376 kts | 360° |
| 2026-04-26 20:05 | 52.85012 | 10.06103 | 25298 ft | 379 kts | 4° |
| 2026-04-26 20:06 | 52.87580 | 10.06866 | 25301 ft | 380 kts | 5° |
| 2026-04-26 20:06 | 52.90175 | 10.07718 | 25296 ft | 380 kts | 6° |
| 2026-04-26 20:06 | 52.92774 | 10.08585 | 25299 ft | 380 kts | 5° |
| 2026-04-26 20:06 | 52.95337 | 10.09435 | 25102 ft | 371 kts | 5° |
| 2026-04-26 20:07 | 52.97861 | 10.10257 | 24640 ft | 370 kts | 5° |
| 2026-04-26 20:07 | 53.00387 | 10.11064 | 24069 ft | 369 kts | 5° |
| 2026-04-26 20:07 | 53.02911 | 10.11860 | 23461 ft | 369 kts | 5° |
| 2026-04-26 20:07 | 53.05423 | 10.12651 | 22932 ft | 365 kts | 5° |
| 2026-04-26 20:08 | 53.07906 | 10.13431 | 22453 ft | 361 kts | 5° |
| 2026-04-26 20:08 | 53.10367 | 10.14204 | 21957 ft | 358 kts | 5° |
| 2026-04-26 20:08 | 53.12809 | 10.14970 | 21441 ft | 356 kts | 5° |
| 2026-04-26 20:08 | 53.15232 | 10.15730 | 20954 ft | 353 kts | 4° |
| 2026-04-26 20:09 | 53.17631 | 10.16484 | 20488 ft | 350 kts | 4° |
| 2026-04-26 20:09 | 53.20024 | 10.17237 | 20022 ft | 347 kts | 4° |
| 2026-04-26 20:09 | 53.22394 | 10.17983 | 19562 ft | 345 kts | 4° |
| 2026-04-26 20:09 | 53.24740 | 10.18723 | 19105 ft | 342 kts | 4° |
| 2026-04-26 20:10 | 53.27075 | 10.19460 | 18675 ft | 339 kts | 4° |
| 2026-04-26 20:10 | 53.29399 | 10.20192 | 17958 ft | 342 kts | 4° |
| 2026-04-26 20:10 | 53.31720 | 10.20921 | 17082 ft | 346 kts | 7° |
| 2026-04-26 20:10 | 53.34113 | 10.21673 | 16358 ft | 353 kts | 8° |
| 2026-04-26 20:11 | 53.36538 | 10.22438 | 15664 ft | 356 kts | 8° |
| 2026-04-26 20:11 | 53.38985 | 10.23214 | 14982 ft | 359 kts | 8° |
| 2026-04-26 20:11 | 53.41451 | 10.24000 | 14313 ft | 362 kts | 9° |
| 2026-04-26 20:12 | 53.46338 | 10.25561 | 12893 ft | 364 kts | 9° |
| 2026-04-26 20:12 | 53.48831 | 10.26357 | 12177 ft | 365 kts | 9° |
| 2026-04-26 20:12 | 53.50481 | 10.26884 | 11704 ft | 365 kts | 9° |
| 2026-04-26 20:12 | 53.52988 | 10.27684 | 10870 ft | 368 kts | 9° |
| 2026-04-26 20:13 | 53.55519 | 10.28493 | 10032 ft | 371 kts | 9° |
| 2026-04-26 20:13 | 53.58048 | 10.29303 | 9464 ft | 365 kts | 9° |
| 2026-04-26 20:13 | 53.60489 | 10.30086 | 9348 ft | 348 kts | 9° |
| 2026-04-26 20:13 | 53.62852 | 10.30842 | 8584 ft | 349 kts | 9° |
| 2026-04-26 20:14 | 53.65267 | 10.31612 | 7716 ft | 355 kts | 9° |
| 2026-04-26 20:14 | 53.67713 | 10.32391 | 6858 ft | 360 kts | 9° |
| 2026-04-26 20:14 | 53.70178 | 10.33181 | 6207 ft | 358 kts | 9° |
| 2026-04-26 20:14 | 53.72567 | 10.33954 | 6060 ft | 339 kts | 9° |
| 2026-04-26 20:15 | 53.74814 | 10.34683 | 5759 ft | 318 kts | 8° |
| 2026-04-26 20:15 | 53.76955 | 10.34783 | 5473 ft | 299 kts | 356° |
| 2026-04-26 20:15 | 53.78972 | 10.35132 | 5213 ft | 287 kts | 11° |
| 2026-04-26 20:15 | 53.80879 | 10.35793 | 4919 ft | 273 kts | 1° |
| 2026-04-26 20:16 | 53.82660 | 10.35266 | 4656 ft | 256 kts | 333° |
| 2026-04-26 20:16 | 53.83987 | 10.33466 | 4407 ft | 238 kts | 303° |
| 2026-04-26 20:16 | 53.84532 | 10.30970 | 4150 ft | 221 kts | 272° |
| 2026-04-26 20:16 | 53.84191 | 10.28512 | 3900 ft | 215 kts | 239° |
| 2026-04-26 20:17 | 53.83101 | 10.26839 | 3663 ft | 217 kts | 206° |
| 2026-04-26 20:17 | 53.81623 | 10.26201 | 3497 ft | 222 kts | 190° |
| 2026-04-26 20:17 | 53.80064 | 10.26317 | 3266 ft | 225 kts | 179° |
| 2026-04-26 20:17 | 53.78531 | 10.25982 | 3059 ft | 218 kts | 195° |
| 2026-04-26 20:18 | 53.77099 | 10.25460 | 2975 ft | 202 kts | 195° |
| 2026-04-26 20:18 | 53.75949 | 10.24425 | 2969 ft | 180 kts | 230° |
| 2026-04-26 20:18 | 53.75089 | 10.22853 | 2978 ft | 183 kts | 227° |
| 2026-04-26 20:18 | 53.74225 | 10.21343 | 2993 ft | 174 kts | 230° |
| 2026-04-26 20:19 | 53.73437 | 10.19830 | 2982 ft | 170 kts | 231° |
| 2026-04-26 20:19 | 53.72673 | 10.18309 | 2899 ft | 172 kts | 232° |
| 2026-04-26 20:19 | 53.71904 | 10.16759 | 2694 ft | 172 kts | 232° |
| 2026-04-26 20:19 | 53.71153 | 10.15242 | 2447 ft | 168 kts | 232° |
| 2026-04-26 20:20 | 53.70411 | 10.13742 | 2232 ft | 166 kts | 232° |
| 2026-04-26 20:20 | 53.69661 | 10.12227 | 1989 ft | 169 kts | 232° |
| 2026-04-26 20:20 | 53.68902 | 10.10694 | 1767 ft | 170 kts | 232° |
| 2026-04-26 20:20 | 53.68166 | 10.09208 | 1550 ft | 158 kts | 233° |
| 2026-04-26 20:21 | 53.67481 | 10.07822 | 1310 ft | 151 kts | 234° |
| 2026-04-26 20:21 | 53.66814 | 10.06462 | 1102 ft | 151 kts | 234° |
| 2026-04-26 20:21 | 53.66131 | 10.05090 | 915 ft | 153 kts | 234° |
| 2026-04-26 20:21 | 53.65451 | 10.03697 | 690 ft | 155 kts | 234° |
| 2026-04-26 20:22 | 53.64766 | 10.02294 | 443 ft | 154 kts | 233° |
| 2026-04-26 20:22 | 53.64078 | 10.00939 | 230 ft | 150 kts | 233° |
| 2026-04-26 20:22 | 53.63420 | 9.99602 | 53 ft | 146 kts | 233° |
| 2026-04-26 20:22 | 53.62869 | 9.98480 | 43 ft | 97 kts | 230° |
| 2026-04-26 20:23 | 53.62559 | 9.97856 | 40 ft | 41 kts | 230° |
| 2026-04-26 20:23 | 53.62449 | 9.97822 | 41 ft | 10 kts | 133° |
| 2026-04-26 20:23 | 53.62434 | 9.97855 | 43 ft | 0 kts | 123° |
| 2026-04-26 20:24 | 53.62432 | 9.97863 | 43 ft | 4 kts | 115° |
| 2026-04-26 20:24 | 53.62428 | 9.97938 | 45 ft | 8 kts | 84° |
| 2026-04-26 20:24 | 53.62459 | 9.98075 | 45 ft | 17 kts | 61° |
| 2026-04-26 20:25 | 53.62535 | 9.98240 | 44 ft | 18 kts | 50° |
| 2026-04-26 20:25 | 53.62587 | 9.98343 | 46 ft | 17 kts | 50° |
| 2026-04-26 20:25 | 53.62688 | 9.98546 | 46 ft | 16 kts | 50° |
| 2026-04-26 20:25 | 53.62758 | 9.98693 | 46 ft | 16 kts | 49° |
| 2026-04-26 20:26 | 53.62828 | 9.98832 | 46 ft | 15 kts | 49° |
| 2026-04-26 20:26 | 53.62894 | 9.98965 | 46 ft | 15 kts | 50° |
| 2026-04-26 20:26 | 53.62959 | 9.99092 | 46 ft | 14 kts | 52° |
| 2026-04-26 20:26 | 53.63018 | 9.99217 | 46 ft | 13 kts | 50° |
| 2026-04-26 20:27 | 53.63069 | 9.99330 | 46 ft | 11 kts | 58° |
| 2026-04-26 20:27 | 53.63113 | 9.99439 | 45 ft | 11 kts | 54° |
| 2026-04-26 20:27 | 53.63159 | 9.99543 | 45 ft | 11 kts | 51° |
| 2026-04-26 20:27 | 53.63207 | 9.99641 | 47 ft | 11 kts | 49° |
| 2026-04-26 20:28 | 53.63258 | 9.99729 | 47 ft | 10 kts | 45° |
| 2026-04-26 20:28 | 53.63305 | 9.99817 | 47 ft | 10 kts | 49° |
| 2026-04-26 20:28 | 53.63349 | 9.99903 | 47 ft | 10 kts | 49° |
| 2026-04-26 20:28 | 53.63392 | 9.99990 | 47 ft | 9 kts | 52° |
| 2026-04-26 20:29 | 53.63431 | 10.00077 | 47 ft | 9 kts | 66° |
| 2026-04-26 20:29 | 53.63414 | 10.00164 | 47 ft | 6 kts | 129° |
| 2026-04-26 20:29 | 53.63380 | 10.00199 | 47 ft | 6 kts | 159° |
| 2026-04-26 20:29 | 53.63369 | 10.00261 | 47 ft | 6 kts | 88° |
| 2026-04-26 20:30 | 53.63371 | 10.00308 | 47 ft | 1 kts | 86° |
| 2026-04-26 20:30 | 53.63372 | 10.00320 | 45 ft | 1 kts | 85° |
| 2026-04-26 20:30 | 53.63372 | 10.00331 | 44 ft | 1 kts | 85° |
| 2026-04-26 20:30 | 53.63372 | 10.00332 | 44 ft | 0 kts | 85° |